createdAt,value
2023-03-29T00:01:36.629Z,80.50
2023-03-29T00:04:03.473Z,81.10
2023-03-29T00:06:30.140Z,81.00
2023-03-29T00:08:56.706Z,81.30
2023-03-29T00:11:23.276Z,81.80
2023-03-29T00:13:49.817Z,82.30
2023-03-29T00:16:16.410Z,82.50
2023-03-29T00:18:42.991Z,82.80
2023-03-29T00:21:09.671Z,82.70
2023-03-29T00:23:36.411Z,82.90
2023-03-29T00:26:03.834Z,82.80
2023-03-29T00:28:31.438Z,84.20
2023-03-29T00:30:58.152Z,85.50
2023-03-29T00:33:24.924Z,86.10
2023-03-29T00:35:51.706Z,84.90
2023-03-29T00:38:18.310Z,84.00
2023-03-29T00:40:44.885Z,83.80
2023-03-29T00:43:11.654Z,84.10
2023-03-29T00:45:38.285Z,84.90
2023-03-29T00:48:04.881Z,84.00
2023-03-29T00:50:31.480Z,83.30
2023-03-29T00:52:58.225Z,83.90
2023-03-29T00:55:24.888Z,85.00
2023-03-29T00:57:51.469Z,85.50
2023-03-29T01:00:18.069Z,86.20
2023-03-29T01:02:44.754Z,86.10
2023-03-29T01:05:11.301Z,86.90
2023-03-29T01:07:37.876Z,87.90
2023-03-29T01:10:04.473Z,89.00
2023-03-29T01:12:31.113Z,88.80
2023-03-29T01:14:57.672Z,87.30
2023-03-29T01:17:24.285Z,86.10
2023-03-29T01:19:50.976Z,85.90
2023-03-29T01:22:17.561Z,85.90
2023-03-29T01:24:44.133Z,85.90
2023-03-29T01:27:10.722Z,87.20
2023-03-29T01:29:37.275Z,88.00
2023-03-29T01:32:03.908Z,88.60
2023-03-29T01:34:30.563Z,88.90
2023-03-29T01:36:57.203Z,88.60
2023-03-29T01:39:23.913Z,88.50
2023-03-29T01:41:50.473Z,87.40
2023-03-29T01:44:17.086Z,87.10
2023-03-29T01:46:43.668Z,86.60
2023-03-29T01:49:10.268Z,86.90
2023-03-29T01:51:36.819Z,87.70
2023-03-29T01:54:03.549Z,86.70
2023-03-29T01:56:30.141Z,87.10
2023-03-29T01:58:56.737Z,87.50
2023-03-29T02:01:23.341Z,87.20
2023-03-29T02:03:50.106Z,87.40
2023-03-29T02:06:16.701Z,87.10
2023-03-29T02:08:43.375Z,87.40
2023-03-29T02:11:09.990Z,87.60
2023-03-29T02:13:36.587Z,87.60
2023-03-29T02:16:03.331Z,89.40
2023-03-29T02:18:29.949Z,89.30
2023-03-29T02:20:56.526Z,89.30
2023-03-29T02:23:23.163Z,89.10
2023-03-29T02:25:49.809Z,88.90
2023-03-29T02:28:16.377Z,89.10
2023-03-29T02:30:43.056Z,88.80
2023-03-29T02:33:09.671Z,88.70
2023-03-29T02:35:36.382Z,88.80
2023-03-29T02:38:03.044Z,88.20
2023-03-29T02:40:29.641Z,89.70
2023-03-29T02:42:56.284Z,91.00
2023-03-29T02:45:22.869Z,91.30
2023-03-29T02:47:49.660Z,90.80
2023-03-29T02:50:16.368Z,90.70
2023-03-29T02:52:43.049Z,90.70
2023-03-29T02:55:09.684Z,90.60
2023-03-29T02:57:36.262Z,90.70
2023-03-29T03:00:02.947Z,90.60
2023-03-29T03:02:29.891Z,90.70
2023-03-29T03:04:56.442Z,90.30
2023-03-29T03:07:23.044Z,90.20
2023-03-29T03:09:49.593Z,90.10
2023-03-29T03:12:16.205Z,90.20
2023-03-29T03:14:42.781Z,91.00
2023-03-29T03:17:09.380Z,90.80
2023-03-29T03:19:35.919Z,90.20
2023-03-29T03:22:02.466Z,90.00
2023-03-29T03:24:29.027Z,90.30
2023-03-29T03:26:55.595Z,90.50
2023-03-29T03:29:22.138Z,91.00
2023-03-29T03:31:48.751Z,90.80
2023-03-29T03:34:15.366Z,90.60
2023-03-29T03:36:42.017Z,90.70
2023-03-29T03:39:08.592Z,90.50
2023-03-29T03:41:35.150Z,90.40
2023-03-29T03:44:01.758Z,90.20
2023-03-29T03:46:29.587Z,90.20
2023-03-29T03:48:56.928Z,90.50
2023-03-29T03:51:23.512Z,91.00
2023-03-29T03:53:50.112Z,90.90
2023-03-29T03:56:16.734Z,91.20
2023-03-29T03:58:43.334Z,90.80
2023-03-29T04:01:10.017Z,90.40
2023-03-29T04:03:36.718Z,90.10
2023-03-29T04:06:03.343Z,90.20
2023-03-29T04:08:29.896Z,89.80
2023-03-29T04:10:56.520Z,89.20
2023-03-29T04:13:23.085Z,89.50
2023-03-29T04:15:49.721Z,89.30
2023-03-29T04:18:16.498Z,88.80
2023-03-29T04:20:43.202Z,89.20
2023-03-29T04:23:09.765Z,88.90
2023-03-29T04:25:36.327Z,88.80
2023-03-29T04:28:02.944Z,89.10
2023-03-29T04:30:29.571Z,89.90
2023-03-29T04:32:56.299Z,89.80
2023-03-29T04:35:23.015Z,90.20
2023-03-29T04:37:49.682Z,90.30
2023-03-29T04:40:16.213Z,90.10
2023-03-29T04:42:42.788Z,90.10
2023-03-29T04:45:09.389Z,90.30
2023-03-29T04:47:36.053Z,90.30
2023-03-29T04:50:02.663Z,90.10
2023-03-29T04:52:29.228Z,90.20
2023-03-29T04:54:55.843Z,90.20
2023-03-29T04:57:22.493Z,91.60
2023-03-29T04:59:49.170Z,90.80
2023-03-29T05:02:15.729Z,90.80
2023-03-29T05:04:42.361Z,91.00
2023-03-29T05:07:08.972Z,91.20
2023-03-29T05:09:35.682Z,90.70
2023-03-29T05:12:02.347Z,90.20
2023-03-29T05:14:29.005Z,90.40
2023-03-29T05:16:55.586Z,90.00
2023-03-29T05:19:22.176Z,90.30
2023-03-29T05:21:48.761Z,90.60
2023-03-29T05:24:15.375Z,90.60
2023-03-29T05:26:42.015Z,90.60
2023-03-29T05:29:08.586Z,90.80
2023-03-29T05:31:35.194Z,90.50
2023-03-29T05:34:02.144Z,89.70
2023-03-29T05:36:28.727Z,89.80
2023-03-29T05:38:55.311Z,89.70
2023-03-29T05:41:21.923Z,90.00
2023-03-29T05:43:48.540Z,89.20
2023-03-29T05:46:15.238Z,89.90
2023-03-29T05:48:41.892Z,90.30
2023-03-29T05:51:10.592Z,89.70
2023-03-29T05:53:37.244Z,89.80
2023-03-29T05:56:03.878Z,89.40
2023-03-29T05:58:30.642Z,89.20
2023-03-29T06:00:57.239Z,88.80
2023-03-29T06:03:24.039Z,88.60
2023-03-29T06:05:50.723Z,88.60
2023-03-29T06:08:17.315Z,90.40
2023-03-29T06:10:44.003Z,90.70
2023-03-29T06:13:10.569Z,89.80
2023-03-29T06:15:37.173Z,90.00
2023-03-29T06:18:03.860Z,89.40
2023-03-29T06:20:30.507Z,89.30
2023-03-29T06:22:57.180Z,88.10
2023-03-29T06:25:23.757Z,89.20
2023-03-29T06:27:50.450Z,89.90
2023-03-29T06:30:17.108Z,89.10
2023-03-29T06:32:43.796Z,88.80
2023-03-29T06:35:10.437Z,87.70
2023-03-29T06:37:37.015Z,87.50
2023-03-29T06:40:03.760Z,87.40
2023-03-29T06:42:30.423Z,87.80
2023-03-29T06:44:57.020Z,88.30
2023-03-29T06:47:23.647Z,86.30
2023-03-29T06:49:50.557Z,88.10
2023-03-29T06:52:17.198Z,87.90
2023-03-29T06:54:43.796Z,87.40
2023-03-29T06:57:10.426Z,87.40
2023-03-29T06:59:37.066Z,87.70
2023-03-29T07:02:03.720Z,86.40
2023-03-29T07:04:30.399Z,86.30
2023-03-29T07:06:57.025Z,85.50
2023-03-29T07:09:23.610Z,86.30
2023-03-29T07:11:50.162Z,85.10
2023-03-29T07:14:16.726Z,84.50
2023-03-29T07:16:43.355Z,86.00
2023-03-29T07:19:10.418Z,84.60
2023-03-29T07:21:38.043Z,83.20
2023-03-29T07:24:04.795Z,85.40
2023-03-29T07:26:31.356Z,85.30
2023-03-29T07:28:57.953Z,85.20
2023-03-29T07:31:24.530Z,86.80
2023-03-29T07:33:51.190Z,85.80
2023-03-29T07:36:17.901Z,86.40
2023-03-29T07:38:44.451Z,85.40
2023-03-29T07:41:11.041Z,84.40
2023-03-29T07:43:37.594Z,86.10
2023-03-29T07:46:04.227Z,88.40
2023-03-29T07:48:30.807Z,87.50
2023-03-29T07:50:57.416Z,85.90
2023-03-29T07:53:23.999Z,85.10
2023-03-29T07:55:50.563Z,86.40
2023-03-29T07:58:17.197Z,86.10
2023-03-29T08:00:43.891Z,86.20
2023-03-29T08:03:10.606Z,84.60
2023-03-29T08:05:41.482Z,86.40
2023-03-29T08:08:08.657Z,86.50
2023-03-29T08:10:35.216Z,86.20
2023-03-29T08:13:01.788Z,86.00
2023-03-29T08:15:28.393Z,86.20
2023-03-29T08:17:55.063Z,85.50
2023-03-29T08:20:21.712Z,85.90
2023-03-29T08:22:48.308Z,86.40
2023-03-29T08:25:14.868Z,86.90
2023-03-29T08:27:41.463Z,85.20
2023-03-29T08:30:08.085Z,84.90
2023-03-29T08:32:34.705Z,82.60
2023-03-29T08:35:01.323Z,83.10
2023-03-29T08:37:27.969Z,84.50
2023-03-29T08:39:54.526Z,80.50
2023-03-29T08:42:21.395Z,80.00
2023-03-29T08:44:47.996Z,81.00
2023-03-29T08:47:14.559Z,81.60
2023-03-29T08:49:41.136Z,79.50
2023-03-29T08:52:07.728Z,79.50
2023-03-29T08:54:34.334Z,78.90
2023-03-29T08:57:01.614Z,78.60
2023-03-29T08:59:28.211Z,80.60
2023-03-29T09:01:54.821Z,80.50
2023-03-29T09:04:21.440Z,80.90
2023-03-29T09:06:48.011Z,78.30
2023-03-29T09:09:14.665Z,80.30
2023-03-29T09:11:41.211Z,77.50
2023-03-29T09:14:07.765Z,77.30
2023-03-29T09:16:34.502Z,76.50
2023-03-29T09:19:01.167Z,75.70
2023-03-29T09:21:27.753Z,77.10
2023-03-29T09:23:55.711Z,76.10
2023-03-29T09:26:22.520Z,76.10
2023-03-29T09:28:49.082Z,76.80
2023-03-29T09:31:15.767Z,76.90
2023-03-29T09:33:42.385Z,77.00
2023-03-29T09:36:09.057Z,76.90
2023-03-29T09:38:35.691Z,78.60
2023-03-29T09:41:02.485Z,77.90
2023-03-29T09:43:29.333Z,77.10
2023-03-29T09:45:56.075Z,76.80
2023-03-29T09:48:22.766Z,76.40
2023-03-29T09:50:49.339Z,78.10
2023-03-29T09:53:16.025Z,76.90
2023-03-29T09:55:42.611Z,74.90
2023-03-29T09:58:09.339Z,76.20
2023-03-29T10:00:35.915Z,77.20
2023-03-29T10:03:02.581Z,75.70
2023-03-29T10:05:29.334Z,75.80
2023-03-29T10:07:55.955Z,77.10
2023-03-29T10:10:22.548Z,75.60
2023-03-29T10:12:49.147Z,75.60
2023-03-29T10:15:26.801Z,75.80
2023-03-29T10:17:56.165Z,74.60
2023-03-29T10:20:22.759Z,75.40
2023-03-29T10:22:49.458Z,72.50
2023-03-29T10:25:16.061Z,74.40
2023-03-29T10:27:42.612Z,74.30
2023-03-29T10:30:09.186Z,74.50
2023-03-29T10:32:35.821Z,74.60
2023-03-29T10:35:02.417Z,71.50
2023-03-29T10:37:29.018Z,71.40
2023-03-29T10:39:55.586Z,72.30
2023-03-29T10:42:22.175Z,70.70
2023-03-29T10:44:48.713Z,73.80
2023-03-29T10:47:15.303Z,71.20
2023-03-29T10:49:41.872Z,71.50
2023-03-29T10:52:08.474Z,69.90
2023-03-29T10:54:35.043Z,70.60
2023-03-29T10:57:01.640Z,70.50
2023-03-29T10:59:28.236Z,69.50
2023-03-29T11:01:54.839Z,69.00
2023-03-29T11:04:21.448Z,71.30
2023-03-29T11:06:48.045Z,71.70
2023-03-29T11:09:14.616Z,70.70
2023-03-29T11:11:41.209Z,70.10
2023-03-29T11:14:07.924Z,70.90
2023-03-29T11:16:34.522Z,70.70
2023-03-29T11:19:01.140Z,66.80
2023-03-29T11:21:27.743Z,64.00
2023-03-29T11:23:54.358Z,67.90
2023-03-29T11:26:20.917Z,70.50
2023-03-29T11:28:47.472Z,70.10
2023-03-29T11:31:14.135Z,69.30
2023-03-29T11:33:40.713Z,66.90
2023-03-29T11:36:07.378Z,67.20
2023-03-29T11:38:33.977Z,69.20
2023-03-29T11:41:00.791Z,68.30
2023-03-29T11:43:27.524Z,65.80
2023-03-29T11:45:54.080Z,67.90
2023-03-29T11:48:20.658Z,67.60
2023-03-29T11:50:47.230Z,66.50
2023-03-29T11:53:13.805Z,65.90
2023-03-29T11:55:40.415Z,66.20
2023-03-29T11:58:06.976Z,66.60
2023-03-29T12:00:33.557Z,65.10
2023-03-29T12:03:00.355Z,65.50
2023-03-29T12:05:27.012Z,59.10
2023-03-29T12:07:53.583Z,61.10
2023-03-29T12:10:20.152Z,63.80
2023-03-29T12:12:46.784Z,61.90
2023-03-29T12:15:13.400Z,63.80
2023-03-29T12:17:40.035Z,60.80
2023-03-29T12:20:06.640Z,62.00
2023-03-29T12:22:33.250Z,61.40
2023-03-29T12:24:59.796Z,60.60
2023-03-29T12:27:26.480Z,58.30
2023-03-29T12:29:53.170Z,61.10
2023-03-29T12:32:19.862Z,59.80
2023-03-29T12:34:46.597Z,60.40
2023-03-29T12:37:13.229Z,58.80
2023-03-29T12:39:39.790Z,60.40
2023-03-29T12:42:06.355Z,62.40
2023-03-29T12:44:32.985Z,62.60
2023-03-29T12:46:59.588Z,61.10
2023-03-29T12:49:26.170Z,58.10
2023-03-29T12:51:52.749Z,58.10
2023-03-29T12:54:19.352Z,57.60
2023-03-29T12:56:45.914Z,57.80
2023-03-29T12:59:12.519Z,58.70
2023-03-29T13:01:39.244Z,59.70
2023-03-29T13:04:05.965Z,59.80
2023-03-29T13:06:32.520Z,59.60
2023-03-29T13:08:59.254Z,63.00
2023-03-29T13:11:25.823Z,59.20
2023-03-29T13:13:52.422Z,59.30
2023-03-29T13:16:19.021Z,59.90
2023-03-29T13:18:45.579Z,59.10
2023-03-29T13:21:12.171Z,62.30
2023-03-29T13:23:38.752Z,62.40
2023-03-29T13:26:05.485Z,63.20
2023-03-29T13:28:32.180Z,60.00
2023-03-29T13:30:58.774Z,60.80
2023-03-29T13:33:25.365Z,58.00
2023-03-29T13:35:51.959Z,59.70
2023-03-29T13:38:18.629Z,59.40
2023-03-29T13:40:45.177Z,58.50
2023-03-29T13:43:11.791Z,58.30
2023-03-29T13:45:38.355Z,58.90
2023-03-29T13:48:05.833Z,60.20
2023-03-29T13:50:32.914Z,59.80
2023-03-29T13:52:59.544Z,58.60
2023-03-29T13:55:26.113Z,59.20
2023-03-29T13:57:52.780Z,59.50
2023-03-29T14:00:19.386Z,59.30
2023-03-29T14:02:48.721Z,59.90
2023-03-29T14:05:15.916Z,60.30
2023-03-29T14:07:42.496Z,58.40
2023-03-29T14:10:09.096Z,60.00
2023-03-29T14:12:35.684Z,60.70
2023-03-29T14:15:02.291Z,60.40
2023-03-29T14:17:28.948Z,58.70
2023-03-29T14:19:55.516Z,59.50
2023-03-29T14:22:22.093Z,57.00
2023-03-29T14:24:48.663Z,59.70
2023-03-29T14:27:15.275Z,58.70
2023-03-29T14:29:41.824Z,60.00
2023-03-29T14:32:08.541Z,60.20
2023-03-29T14:34:35.172Z,59.20
2023-03-29T14:37:01.796Z,59.40
2023-03-29T14:39:28.437Z,59.80
2023-03-29T14:41:55.032Z,59.10
2023-03-29T14:44:21.627Z,58.60
2023-03-29T14:46:48.205Z,58.50
2023-03-29T14:49:14.788Z,59.20
2023-03-29T14:51:43.743Z,59.40
2023-03-29T14:54:10.340Z,60.90
2023-03-29T14:56:36.916Z,62.00
2023-03-29T14:59:03.525Z,60.70
2023-03-29T15:01:30.151Z,62.80
2023-03-29T15:03:56.857Z,59.10
2023-03-29T15:06:23.549Z,62.30
2023-03-29T15:09:03.745Z,63.80
2023-03-29T15:11:31.412Z,61.30
2023-03-29T15:13:58.049Z,64.90
2023-03-29T15:16:24.718Z,61.70
2023-03-29T15:18:51.301Z,61.30
2023-03-29T15:21:18.196Z,61.90
2023-03-29T15:23:44.856Z,63.20
2023-03-29T15:26:11.480Z,61.10
2023-03-29T15:28:38.040Z,62.50
2023-03-29T15:31:08.246Z,62.70
2023-03-29T15:33:35.272Z,61.10
2023-03-29T15:36:02.288Z,64.40
2023-03-29T15:38:36.734Z,62.50
2023-03-29T15:41:10.234Z,60.00
2023-03-29T15:43:36.829Z,63.20
2023-03-29T15:46:03.936Z,61.00
2023-03-29T15:48:30.810Z,60.50
2023-03-29T15:50:59.244Z,60.80
2023-03-29T15:53:28.129Z,61.80
2023-03-29T15:55:54.756Z,61.80
2023-03-29T15:58:21.423Z,61.70
2023-03-29T16:00:48.020Z,64.60
2023-03-29T16:03:14.716Z,65.00
2023-03-29T16:05:41.330Z,63.90
2023-03-29T16:08:07.928Z,64.70
2023-03-29T16:10:34.473Z,65.00
2023-03-29T16:13:01.058Z,65.40
2023-03-29T16:15:27.608Z,66.80
2023-03-29T16:17:54.250Z,66.40
2023-03-29T16:20:20.844Z,66.60
2023-03-29T16:22:47.394Z,67.40
2023-03-29T16:25:14.003Z,67.40
2023-03-29T16:27:40.617Z,67.60
2023-03-29T16:30:07.198Z,67.30
2023-03-29T16:32:33.825Z,67.50
2023-03-29T16:35:00.433Z,67.00
2023-03-29T16:37:26.997Z,67.10
2023-03-29T16:39:53.574Z,66.60
2023-03-29T16:42:20.114Z,66.90
2023-03-29T16:44:46.684Z,68.50
2023-03-29T16:47:13.391Z,67.40
2023-03-29T16:49:40.286Z,66.70
2023-03-29T16:52:07.124Z,65.60
2023-03-29T16:54:33.684Z,65.30
2023-03-29T16:57:00.356Z,67.90
2023-03-29T16:59:26.937Z,67.10
2023-03-29T17:01:53.564Z,66.30
2023-03-29T17:04:20.246Z,67.90
2023-03-29T17:06:47.032Z,67.30
2023-03-29T17:09:13.605Z,68.60
2023-03-29T17:11:40.164Z,66.80
2023-03-29T17:14:06.789Z,68.10
2023-03-29T17:16:33.457Z,68.60
2023-03-29T17:19:00.318Z,68.10
2023-03-29T17:21:27.137Z,67.40
2023-03-29T17:23:53.755Z,68.80
2023-03-29T17:26:20.326Z,68.10
2023-03-29T17:28:46.950Z,67.20
2023-03-29T17:31:13.618Z,66.20
2023-03-29T17:33:40.191Z,68.10
2023-03-29T17:36:07.320Z,68.00
2023-03-29T17:38:34.497Z,67.90
2023-03-29T17:41:01.144Z,68.40
2023-03-29T17:43:27.768Z,68.60
2023-03-29T17:45:54.322Z,69.00
2023-03-29T17:48:21.085Z,67.60
2023-03-29T17:50:47.726Z,68.30
2023-03-29T17:53:14.280Z,67.00
2023-03-29T17:55:40.893Z,68.10
2023-03-29T17:58:07.471Z,67.60
2023-03-29T18:00:34.177Z,67.30
2023-03-29T18:03:00.830Z,67.50
2023-03-29T18:05:27.396Z,68.10
2023-03-29T18:07:53.955Z,68.60
2023-03-29T18:10:20.845Z,68.00
2023-03-29T18:12:47.470Z,68.30
2023-03-29T18:15:14.001Z,68.30
2023-03-29T18:17:40.598Z,71.60
2023-03-29T18:20:07.209Z,72.60
2023-03-29T18:22:33.771Z,71.10
2023-03-29T18:25:00.382Z,71.80
2023-03-29T18:27:26.981Z,71.80
2023-03-29T18:29:53.549Z,71.50
2023-03-29T18:32:20.196Z,71.90
2023-03-29T18:34:46.829Z,71.10
2023-03-29T18:37:13.446Z,72.90
2023-03-29T18:39:40.010Z,73.30
2023-03-29T18:42:06.591Z,73.00
2023-03-29T18:44:33.140Z,74.00
2023-03-29T18:46:59.737Z,74.90
2023-03-29T18:49:26.299Z,74.80
2023-03-29T18:51:52.890Z,76.10
2023-03-29T18:54:19.464Z,76.00
2023-03-29T18:56:46.127Z,76.30
2023-03-29T18:59:12.736Z,76.90
2023-03-29T19:01:39.364Z,78.30
2023-03-29T19:04:05.955Z,76.40
2023-03-29T19:06:32.530Z,77.80
2023-03-29T19:08:59.187Z,80.10
2023-03-29T19:11:27.713Z,81.30
2023-03-29T19:13:55.593Z,82.00
2023-03-29T19:16:22.446Z,81.30
2023-03-29T19:18:49.126Z,81.30
2023-03-29T19:21:15.735Z,81.20
2023-03-29T19:23:42.309Z,81.20
2023-03-29T19:26:08.901Z,82.20
2023-03-29T19:28:35.772Z,81.90
2023-03-29T19:31:02.426Z,82.70
2023-03-29T19:33:29.046Z,82.70
2023-03-29T19:35:55.672Z,83.20
2023-03-29T19:38:22.405Z,83.40
2023-03-29T19:40:48.957Z,82.70
2023-03-29T19:43:15.536Z,82.70
2023-03-29T19:45:42.102Z,83.10
2023-03-29T19:48:19.445Z,83.40
2023-03-29T19:50:48.308Z,83.60
2023-03-29T19:53:14.888Z,83.80
2023-03-29T19:55:41.473Z,84.40
2023-03-29T19:58:08.011Z,84.80
2023-03-29T20:00:34.601Z,85.00
2023-03-29T20:03:01.302Z,84.60
2023-03-29T20:05:27.945Z,83.10
2023-03-29T20:07:54.509Z,84.90
2023-03-29T20:10:21.142Z,83.50
2023-03-29T20:12:47.739Z,84.10
2023-03-29T20:15:14.512Z,83.00
2023-03-29T20:17:41.183Z,82.50
2023-03-29T20:20:07.766Z,82.30
2023-03-29T20:22:34.352Z,82.30
2023-03-29T20:25:00.937Z,82.50
2023-03-29T20:27:27.477Z,82.70
2023-03-29T20:29:54.039Z,84.50
2023-03-29T20:32:20.829Z,85.10
2023-03-29T20:34:47.533Z,85.20
2023-03-29T20:37:14.087Z,85.00
2023-03-29T20:39:40.728Z,85.70
2023-03-29T20:42:07.321Z,85.60
2023-03-29T20:44:35.322Z,86.90
2023-03-29T20:47:02.044Z,88.60
2023-03-29T20:49:28.639Z,88.30
2023-03-29T20:51:55.258Z,87.40
2023-03-29T20:54:21.808Z,86.80
2023-03-29T20:56:48.448Z,86.10
2023-03-29T20:59:15.101Z,86.70
2023-03-29T21:01:41.682Z,86.90
2023-03-29T21:04:08.281Z,86.80
2023-03-29T21:06:34.874Z,87.90
2023-03-29T21:09:01.460Z,87.70
2023-03-29T21:11:29.661Z,87.90
2023-03-29T21:13:56.283Z,87.90
2023-03-29T21:16:23.084Z,87.60
2023-03-29T21:18:49.739Z,88.50
2023-03-29T21:21:16.319Z,87.90
2023-03-29T21:23:42.981Z,88.00
2023-03-29T21:26:09.604Z,88.20
2023-03-29T21:28:36.180Z,87.90
2023-03-29T21:31:02.978Z,88.10
2023-03-29T21:33:29.800Z,89.20
2023-03-29T21:35:56.485Z,90.40
2023-03-29T21:38:23.071Z,90.90
2023-03-29T21:40:49.619Z,90.70
2023-03-29T21:43:16.177Z,90.60
2023-03-29T21:45:42.844Z,90.80
2023-03-29T21:48:09.530Z,90.50
2023-03-29T21:50:36.147Z,91.00
2023-03-29T21:53:02.711Z,90.50
2023-03-29T21:55:29.274Z,90.00
2023-03-29T21:57:55.846Z,90.20
2023-03-29T22:00:22.418Z,90.20
2023-03-29T22:02:49.035Z,90.20
2023-03-29T22:05:15.662Z,90.60
2023-03-29T22:07:42.202Z,90.70
2023-03-29T22:10:08.791Z,90.50
2023-03-29T22:12:35.370Z,90.80
2023-03-29T22:15:01.997Z,91.90
2023-03-29T22:17:28.617Z,91.70
2023-03-29T22:19:55.264Z,91.60
2023-03-29T22:22:21.803Z,92.30
2023-03-29T22:24:48.361Z,92.60
2023-03-29T22:27:14.939Z,92.60
2023-03-29T22:29:41.479Z,92.60
2023-03-29T22:32:08.149Z,92.90
2023-03-29T22:34:34.856Z,92.50
2023-03-29T22:37:01.468Z,92.20
2023-03-29T22:39:28.048Z,92.10
2023-03-29T22:41:54.623Z,92.30
2023-03-29T22:44:21.197Z,92.20
2023-03-29T22:46:47.876Z,92.00
2023-03-29T22:49:14.422Z,92.20
2023-03-29T22:51:41.271Z,93.20
2023-03-29T22:54:07.869Z,93.10
2023-03-29T22:56:34.422Z,93.10
2023-03-29T22:59:01.028Z,93.60
2023-03-29T23:01:27.760Z,93.00
2023-03-29T23:03:54.383Z,93.10
2023-03-29T23:06:20.997Z,93.00
2023-03-29T23:08:47.584Z,92.60
2023-03-29T23:11:14.164Z,92.40
2023-03-29T23:13:40.729Z,92.30
2023-03-29T23:16:07.295Z,92.50
2023-03-29T23:18:33.882Z,92.40
2023-03-29T23:21:00.440Z,93.00
2023-03-29T23:23:27.109Z,93.20
2023-03-29T23:25:53.666Z,93.20
2023-03-29T23:28:20.251Z,92.50
2023-03-29T23:30:46.818Z,92.90
2023-03-29T23:33:13.366Z,92.90
2023-03-29T23:35:40.006Z,92.70
2023-03-29T23:38:06.598Z,93.10
2023-03-29T23:40:33.180Z,92.70
2023-03-29T23:42:59.902Z,92.60
2023-03-29T23:45:26.527Z,93.00
2023-03-29T23:47:53.142Z,92.80
2023-03-29T23:50:19.701Z,93.00
2023-03-29T23:52:46.273Z,92.80
2023-03-29T23:55:12.819Z,92.40
2023-03-29T23:57:39.390Z,92.70
